Time;durP1;ratioP1;P1;durP2;ratioP2;P2;SDS_P1;SDS_P2;PMS_P1;PMS_P2;Temp;Humidity;BMP_temperature;BMP_pressure;BME280_temperature;BME280_humidity;BME280_pressure;Samples;Min_cycle;Max_cycle;Signal;HPM_P1;HPM_P2
2023/03/15 00:00:44;;;;;;;5.80;3.97;;;;;;;-5.51;71.77;100729.19;4995254;28;20049;-76
2023/03/15 00:03:10;;;;;;;7.20;4.82;;;;;;;-5.56;71.71;100725.69;4994979;28;20042;-75
2023/03/15 00:05:40;;;;;;;6.28;4.20;;;;;;;-5.60;72.38;100735.22;4962620;28;20141;-77
2023/03/15 00:08:06;;;;;;;7.30;4.30;;;;;;;-5.55;72.19;100737.84;4996215;28;20440;-75
2023/03/15 00:10:32;;;;;;;6.82;4.13;;;;;;;-5.56;72.14;100734.38;4995204;28;20057;-75
2023/03/15 00:12:57;;;;;;;6.43;4.72;;;;;;;-5.59;72.03;100730.88;5009514;28;20482;-74
2023/03/15 00:15:23;;;;;;;5.53;4.03;;;;;;;-5.59;72.43;100733.47;5011224;28;20449;-74
2023/03/15 00:17:49;;;;;;;6.82;4.40;;;;;;;-5.59;72.65;100738.69;4994691;28;20065;-76
2023/03/15 00:20:15;;;;;;;5.90;3.67;;;;;;;-5.62;72.61;100737.78;5010960;28;20510;-76
2023/03/15 00:22:41;;;;;;;6.18;4.25;;;;;;;-5.71;72.52;100710.81;4996321;28;20490;-75
2023/03/15 00:25:07;;;;;;;5.82;4.13;;;;;;;-5.69;72.29;100730.78;4994531;28;20042;-76
2023/03/15 00:27:33;;;;;;;5.45;4.13;;;;;;;-5.73;72.45;100734.22;4978259;28;20042;-76
2023/03/15 00:29:59;;;;;;;6.60;4.18;;;;;;;-5.75;72.32;100746.38;4994562;28;20049;-75
2023/03/15 00:32:24;;;;;;;6.32;4.05;;;;;;;-5.77;72.44;100748.09;4962230;28;20044;-77
2023/03/15 00:34:53;;;;;;;6.45;4.40;;;;;;;-5.84;72.53;100730.66;4995932;28;20522;-78
2023/03/15 00:37:20;;;;;;;5.75;4.45;;;;;;;-5.78;72.10;100735.94;4978585;28;20038;-78
2023/03/15 00:39:47;;;;;;;10.00;4.10;;;;;;;-5.75;72.69;100748.13;4962216;28;20049;-77
2023/03/15 00:42:16;;;;;;;3.85;3.03;;;;;;;-5.79;72.35;100744.63;4994348;28;20488;-76
2023/03/15 00:44:44;;;;;;;4.70;3.95;;;;;;;-5.81;72.12;100748.94;4995575;28;20547;-77
2023/03/15 00:47:13;;;;;;;6.95;4.25;;;;;;;-5.80;72.32;100760.22;5010451;28;20049;-76
2023/03/15 00:49:40;;;;;;;8.75;4.55;;;;;;;-5.81;72.29;100755.88;4977991;28;20054;-77
2023/03/15 00:52:06;;;;;;;7.65;4.38;;;;;;;-5.83;72.13;100753.22;4978012;28;20096;-76
2023/03/15 00:54:32;;;;;;;7.70;3.95;;;;;;;-5.89;72.29;100754.06;5010546;28;20046;-76
2023/03/15 00:57:00;;;;;;;5.35;3.97;;;;;;;-5.90;72.54;100761.88;4994258;28;20049;-75
2023/03/15 00:59:34;;;;;;;9.18;3.95;;;;;;;-5.87;72.26;100748.84;4994134;28;20450;-76
2023/03/15 01:02:04;;;;;;;7.53;4.03;;;;;;;-5.85;72.23;100744.56;4994249;28;20100;-76
2023/03/15 01:04:31;;;;;;;11.60;6.68;;;;;;;-5.80;72.10;100757.59;4977933;28;20092;-75
2023/03/15 01:06:57;;;;;;;7.35;5.03;;;;;;;-5.82;72.28;100760.22;4977837;28;20481;-77
2023/03/15 01:09:23;;;;;;;5.80;4.35;;;;;;;-5.81;72.46;100772.38;4993668;28;20073;-77
2023/03/15 01:11:50;;;;;;;6.80;4.30;;;;;;;-5.87;72.50;100780.09;4992994;28;20501;-76
2023/03/15 01:14:17;;;;;;;6.63;4.47;;;;;;;-5.85;72.29;100765.38;4993667;28;20561;-77
2023/03/15 01:16:44;;;;;;;8.13;4.38;;;;;;;-5.85;72.30;100768.00;4977852;28;20486;-76
2023/03/15 01:19:12;;;;;;;4.85;4.00;;;;;;;-5.89;72.61;100784.44;4993582;28;20050;-76
2023/03/15 01:21:38;;;;;;;6.32;4.40;;;;;;;-5.88;72.44;100792.25;4994835;28;20153;-78
2023/03/15 01:24:04;;;;;;;8.18;4.30;;;;;;;-5.91;72.47;100787.00;5009596;28;20520;-76
2023/03/15 01:26:30;;;;;;;5.53;4.07;;;;;;;-5.90;72.29;100773.16;4993264;28;20413;-77
2023/03/15 01:28:56;;;;;;;5.80;3.75;;;;;;;-5.90;72.69;100782.72;4993191;28;20042;-76
2023/03/15 01:31:25;;;;;;;7.07;4.20;;;;;;;-5.97;72.72;100775.72;4994579;28;20050;-76
2023/03/15 01:33:51;;;;;;;5.47;4.10;;;;;;;-6.01;72.77;100774.81;4977425;28;20046;-76
2023/03/15 01:36:17;;;;;;;4.93;3.75;;;;;;;-5.99;72.89;100774.81;4977048;28;20042;-77
2023/03/15 01:38:44;;;;;;;6.40;3.67;;;;;;;-5.95;72.59;100766.19;4994816;28;20065;-76
2023/03/15 01:41:11;;;;;;;6.30;4.05;;;;;;;-6.01;73.03;100768.75;4993262;28;20046;-77
2023/03/15 01:43:37;;;;;;;5.03;3.90;;;;;;;-5.93;72.53;100773.16;4977088;28;20054;-76
2023/03/15 01:46:22;;;;;;;6.85;3.95;;;;;;;-5.88;72.32;100780.97;4994294;28;20038;-77
2023/03/15 01:49:13;;;;;;;3.88;3.08;;;;;;;-5.92;72.52;100774.03;4993072;28;20046;-76
2023/03/15 01:51:46;;;;;;;4.32;3.70;;;;;;;-5.92;72.51;100769.66;4976882;28;20100;-76
2023/03/15 01:54:32;;;;;;;9.68;3.67;;;;;;;-5.96;72.89;100777.47;4993241;28;20054;-76
2023/03/15 01:57:07;;;;;;;6.57;4.13;;;;;;;-5.89;72.93;100789.66;5009974;28;20034;-76
2023/03/15 01:59:38;;;;;;;7.28;3.78;;;;;;;-5.87;72.52;100782.72;4993413;28;20065;-76
2023/03/15 02:02:05;;;;;;;5.40;3.72;;;;;;;-5.83;72.53;100788.81;4976729;28;20042;-75
2023/03/15 02:04:40;;;;;;;5.35;4.38;;;;;;;-5.81;72.79;100790.59;5008724;28;20471;-75
2023/03/15 02:07:08;;;;;;;6.50;4.53;;;;;;;-5.74;72.33;100784.59;4976656;28;20057;-75
2023/03/15 02:09:53;;;;;;;5.18;4.13;;;;;;;-5.72;72.35;100790.66;4992908;28;20046;-75
2023/03/15 02:12:19;;;;;;;6.88;3.97;;;;;;;-5.72;72.51;100792.41;4992765;28;20108;-77
2023/03/15 02:14:50;;;;;;;4.40;3.67;;;;;;;-5.70;72.30;100796.78;4992568;28;20042;-77
2023/03/15 02:17:24;;;;;;;5.55;4.35;;;;;;;-5.67;72.10;100789.00;4976495;28;20045;-76
2023/03/15 02:20:17;;;;;;;6.47;5.32;;;;;;;-5.66;72.11;100790.72;4992719;28;20137;-76
2023/03/15 02:22:54;;;;;;;6.60;5.03;;;;;;;-5.66;72.20;100785.53;4992170;28;20124;-76
2023/03/15 02:26:10;;;;;;;8.57;6.43;;;;;;;-5.56;71.97;100793.44;4992960;28;20050;-76
2023/03/15 02:28:37;;;;;;;11.90;7.68;;;;;;;-5.63;72.15;100787.28;4959530;28;20085;-76
2023/03/15 02:31:03;;;;;;;11.07;7.43;;;;;;;-5.65;72.08;100789.00;4975935;28;20073;-77
2023/03/15 02:33:33;;;;;;;11.82;7.78;;;;;;;-5.62;72.52;100789.91;5008341;28;20096;-75
2023/03/15 02:36:26;;;;;;;12.80;7.60;;;;;;;-5.52;72.42;100796.06;4991522;28;20042;-76
2023/03/15 02:38:53;;;;;;;12.82;7.43;;;;;;;-5.45;72.06;100803.09;4975851;28;20097;-76
2023/03/15 02:41:35;;;;;;;10.48;7.10;;;;;;;-5.44;71.97;100796.13;4975747;28;20060;-77
2023/03/15 02:44:23;;;;;;;11.57;7.32;;;;;;;-5.41;71.88;100794.44;4959510;28;20070;-76
2023/03/15 02:46:52;;;;;;;10.52;6.82;;;;;;;-5.43;71.99;100803.94;4982207;28;20150;-76
2023/03/15 02:49:24;;;;;;;12.98;7.78;;;;;;;-5.38;72.16;100793.56;4975875;28;20046;-75
2023/03/15 02:51:50;;;;;;;10.05;6.88;;;;;;;-5.38;71.72;100783.13;4992313;28;20060;-75
2023/03/15 02:54:16;;;;;;;12.75;7.18;;;;;;;-5.35;71.67;100782.28;4991923;28;20042;-76
2023/03/15 02:56:42;;;;;;;12.32;7.72;;;;;;;-5.22;71.94;100784.16;4991519;28;20039;-77
2023/03/15 02:59:08;;;;;;;9.50;6.45;;;;;;;-5.12;71.51;100807.66;4991766;28;20499;-75
2023/03/15 03:01:35;;;;;;;14.38;5.25;;;;;;;-4.59;76.90;100794.94;4991900;28;20137;-77
2023/03/15 03:04:02;;;;;;;9.10;6.40;;;;;;;-4.23;72.92;100808.13;4975331;28;20097;-75
2023/03/15 03:06:29;;;;;;;9.95;5.90;;;;;;;-4.21;71.57;100816.88;4991854;28;20042;-75
2023/03/15 03:08:55;;;;;;;10.40;5.78;;;;;;;-4.30;69.72;100822.03;4991901;28;20125;-74
2023/03/15 03:11:21;;;;;;;10.45;6.38;;;;;;;-4.32;69.69;100810.72;4992285;28;20640;-74
2023/03/15 03:13:47;;;;;;;11.35;6.43;;;;;;;-4.17;71.15;100812.53;4992612;28;20042;-76
2023/03/15 03:16:13;;;;;;;11.45;6.22;;;;;;;-4.18;69.71;100798.56;4992129;28;20042;-74
2023/03/15 03:18:41;;;;;;;7.30;5.72;;;;;;;-4.24;68.99;100816.84;5007877;28;20136;-76
2023/03/15 03:21:07;;;;;;;16.90;6.67;;;;;;;-4.19;69.08;100815.13;4991654;28;20130;-78
2023/03/15 03:23:35;;;;;;;13.38;6.63;;;;;;;-4.03;68.85;100813.41;4961476;28;20035;-76
2023/03/15 03:26:03;;;;;;;9.07;6.22;;;;;;;-3.96;68.40;100811.69;4968195;28;20070;-76
2023/03/15 03:28:32;;;;;;;13.82;7.50;;;;;;;-3.82;68.23;100810.00;4955097;28;20038;-82
2023/03/15 03:30:59;;;;;;;17.23;6.95;;;;;;;-3.80;67.78;100826.56;4971189;28;20043;-80
2023/03/15 03:33:26;;;;;;;10.52;6.63;;;;;;;-3.66;67.92;100831.78;4939151;28;20062;-76
2023/03/15 03:35:52;;;;;;;13.02;7.63;;;;;;;-3.50;67.65;100832.69;4977248;28;20046;-75
2023/03/15 03:38:19;;;;;;;9.00;6.47;;;;;;;-3.36;67.05;100845.78;4956489;28;20058;-76
2023/03/15 03:40:50;;;;;;;9.80;6.63;;;;;;;-3.28;66.73;100849.25;4953495;28;20066;-75
2023/03/15 03:43:16;;;;;;;23.92;6.85;;;;;;;-3.22;66.95;100852.75;4936819;29;20506;-76
2023/03/15 03:45:43;;;;;;;9.75;6.97;;;;;;;-2.99;66.82;100846.66;4953329;28;20094;-77
2023/03/15 03:48:09;;;;;;;9.55;6.30;;;;;;;-3.00;65.88;100845.78;4956305;28;20051;-75
2023/03/15 03:50:35;;;;;;;10.30;6.68;;;;;;;-3.03;66.41;100839.69;4940165;29;20138;-77
2023/03/15 03:53:01;;;;;;;14.20;6.95;;;;;;;-2.95;65.67;100851.00;4940160;29;20388;-75
2023/03/15 03:55:32;;;;;;;11.23;6.82;;;;;;;-2.92;65.79;100858.84;4956058;28;20569;-75
2023/03/15 03:57:59;;;;;;;14.65;7.40;;;;;;;-2.70;66.03;100860.56;4940408;29;20147;-77
2023/03/15 04:00:40;;;;;;;14.57;6.75;;;;;;;-2.43;65.48;100865.75;4956303;29;20047;-76
2023/03/15 04:03:08;;;;;;;12.27;7.10;;;;;;;-2.43;64.73;100861.38;4939858;29;20035;-76
2023/03/15 04:05:36;;;;;;;10.90;7.38;;;;;;;-2.41;64.84;100854.38;4963146;28;20035;-76
2023/03/15 04:08:03;;;;;;;10.32;7.07;;;;;;;-2.38;64.41;100857.00;4974643;28;20073;-76
2023/03/15 04:10:34;;;;;;;11.57;6.50;;;;;;;-2.29;64.18;100867.47;4955924;29;20043;-76
2023/03/15 04:13:00;;;;;;;10.85;7.30;;;;;;;-2.29;63.90;100866.59;4924229;29;20046;-76
2023/03/15 04:15:26;;;;;;;12.18;7.80;;;;;;;-2.32;63.66;100859.59;4923777;29;20145;-80
2023/03/15 04:17:56;;;;;;;13.48;8.48;;;;;;;-1.87;69.18;100862.91;4940173;29;20054;-79
2023/03/15 04:20:25;;;;;;;13.13;7.97;;;;;;;-0.98;71.45;100872.78;4956529;29;20047;-80
2023/03/15 04:22:51;;;;;;;15.07;7.90;;;;;;;-0.64;65.75;100859.38;4956309;29;20161;-79
2023/03/15 04:25:25;;;;;;;14.38;8.40;;;;;;;-0.92;61.10;100858.75;4955897;28;20040;-77
2023/03/15 04:28:11;;;;;;;14.00;7.43;;;;;;;-1.27;61.38;100863.41;4972386;28;20093;-77
2023/03/15 04:30:47;;;;;;;10.88;7.28;;;;;;;-1.29;61.69;100872.19;4992891;28;20133;-79
2023/03/15 04:33:32;;;;;;;15.68;7.35;;;;;;;-1.23;61.61;100866.91;4994007;28;20046;-77
2023/03/15 04:36:17;;;;;;;12.05;6.95;;;;;;;-1.17;61.25;100868.59;4994210;28;20093;-77
2023/03/15 04:39:04;;;;;;;8.13;5.60;;;;;;;-1.14;61.03;100879.06;4994469;28;20045;-76
2023/03/15 04:41:56;;;;;;;7.95;5.90;;;;;;;-1.05;60.73;100879.00;4978780;28;20112;-76
2023/03/15 04:44:46;;;;;;;8.80;5.95;;;;;;;-0.87;60.50;100872.72;4986047;28;20059;-77
2023/03/15 04:47:32;;;;;;;13.18;6.25;;;;;;;-0.94;60.32;100873.63;4993324;28;20058;-78
2023/03/15 04:50:17;;;;;;;9.18;5.82;;;;;;;-0.77;60.48;100869.13;4994109;28;20425;-80
2023/03/15 04:52:58;;;;;;;8.57;5.78;;;;;;;-0.85;59.74;100866.56;4977664;28;20042;-78
2023/03/15 04:55:36;;;;;;;9.02;5.72;;;;;;;-0.85;59.96;100870.97;4995349;28;20089;-78
2023/03/15 04:58:18;;;;;;;7.70;5.97;;;;;;;-0.95;60.09;100872.78;4983508;28;20070;-78
2023/03/15 05:01:04;;;;;;;10.02;5.45;;;;;;;-1.02;59.35;100863.22;4955127;29;20047;-78
2023/03/15 05:03:45;;;;;;;8.07;5.93;;;;;;;-1.11;59.96;100868.56;4956663;28;20113;-77
2023/03/15 05:06:23;;;;;;;6.85;5.43;;;;;;;-1.14;60.29;100881.69;4955655;29;20055;-79
2023/03/15 05:09:04;;;;;;;9.48;5.85;;;;;;;-1.10;60.51;100878.16;4955027;29;20047;-77
2023/03/15 05:11:30;;;;;;;15.27;4.80;;;;;;;-0.87;60.02;100864.84;4971154;28;20121;-78
2023/03/15 05:14:08;;;;;;;12.10;5.53;;;;;;;-0.76;60.00;100887.47;4955242;29;20047;-77
2023/03/15 05:16:54;;;;;;;11.65;6.50;;;;;;;-0.63;59.62;100882.13;4956799;29;20458;-77
2023/03/15 05:19:46;;;;;;;11.30;6.30;;;;;;;-0.40;58.65;100893.28;4954993;29;20066;-79
2023/03/15 05:22:29;;;;;;;12.23;7.20;;;;;;;-0.31;58.39;100890.53;4954400;28;20051;-77
2023/03/15 05:25:16;;;;;;;10.25;7.00;;;;;;;-0.17;58.34;100889.53;4954459;29;20089;-77
2023/03/15 05:28:03;;;;;;;14.27;8.10;;;;;;;0.03;57.25;100903.28;4972414;28;20046;-77
2023/03/15 05:30:47;;;;;;;12.50;7.50;;;;;;;0.31;57.30;100897.72;4960999;28;20038;-77
2023/03/15 05:33:33;;;;;;;12.00;7.80;;;;;;;0.48;56.59;100893.94;4993110;28;20148;-77
2023/03/15 05:36:34;;;;;;;16.08;7.95;;;;;;;0.64;56.18;100889.34;4956575;28;20133;-77
2023/03/15 05:39:18;;;;;;;8.75;7.03;;;;;;;0.68;55.34;100896.31;4975885;28;20055;-77
2023/03/15 05:42:08;;;;;;;10.07;6.07;;;;;;;0.72;54.68;100892.72;4993157;28;20070;-77
2023/03/15 05:44:54;;;;;;;11.15;6.25;;;;;;;0.76;55.45;100892.69;4976902;28;20723;-77
2023/03/15 05:47:33;;;;;;;11.60;7.32;;;;;;;0.92;55.26;100904.72;4978604;28;20054;-78
2023/03/15 05:50:29;;;;;;;10.05;6.25;;;;;;;1.30;54.62;100912.00;4958711;28;20145;-78
2023/03/15 05:53:09;;;;;;;8.95;6.70;;;;;;;1.30;53.71;100911.13;5009207;28;20096;-78
2023/03/15 05:55:56;;;;;;;9.18;5.85;;;;;;;1.60;53.79;100894.78;4993339;28;20042;-80
2023/03/15 05:58:35;;;;;;;7.28;5.63;;;;;;;2.00;53.11;100904.56;4994459;28;20049;-79
2023/03/15 06:01:06;;;;;;;8.38;5.25;;;;;;;2.02;52.07;100901.88;4973747;28;20042;-80
2023/03/15 06:03:52;;;;;;;6.78;4.72;;;;;;;2.18;51.14;100893.66;4985084;28;20046;-78
2023/03/15 06:06:23;;;;;;;5.60;4.68;;;;;;;2.02;51.66;100897.47;5009103;28;20126;-79
2023/03/15 06:08:49;;;;;;;5.88;4.78;;;;;;;2.23;51.73;100895.31;4992161;28;20054;-79
2023/03/15 06:11:15;;;;;;;6.93;5.22;;;;;;;2.50;51.57;100913.19;5009044;28;20105;-78
2023/03/15 06:13:41;;;;;;;6.20;4.88;;;;;;;2.53;50.86;100915.75;4976538;28;20045;-77
2023/03/15 06:16:14;;;;;;;5.32;4.78;;;;;;;2.86;51.25;100885.09;4976457;28;20412;-77
2023/03/15 06:18:43;;;;;;;7.43;5.25;;;;;;;3.01;50.33;100901.44;4992528;28;20058;-76
2023/03/15 06:21:09;;;;;;;9.13;5.20;;;;;;;3.19;50.03;100911.56;4992491;28;20056;-78
2023/03/15 06:23:35;;;;;;;8.38;4.95;;;;;;;3.32;49.81;100904.22;4992829;28;20084;-82
2023/03/15 06:26:00;;;;;;;8.52;5.30;;;;;;;3.49;49.39;100902.00;4976658;28;20073;-78
2023/03/15 06:28:28;;;;;;;15.68;5.32;;;;;;;3.86;49.48;100906.31;5008584;28;20525;-77
2023/03/15 06:30:57;;;;;;;;;;;;;;;3.85;48.18;100901.94;4992757;28;20137;-78
2023/03/15 06:33:31;;;;;;;6.63;4.88;;;;;;;3.98;48.14;100887.44;4964338;28;20336;-77
2023/03/15 06:35:58;;;;;;;5.15;4.32;;;;;;;4.03;47.40;100896.16;4992293;28;20046;-79
2023/03/15 06:38:23;;;;;;;7.85;4.70;;;;;;;4.23;47.33;100907.94;4976006;28;20141;-78
2023/03/15 06:40:49;;;;;;;6.57;4.53;;;;;;;4.26;47.21;100898.13;4991937;28;20074;-77
2023/03/15 06:43:18;;;;;;;6.15;4.47;;;;;;;4.24;47.23;100897.28;4960103;28;20042;-78
2023/03/15 06:45:45;;;;;;;5.60;5.00;;;;;;;4.33;47.16;100904.13;4990018;28;20045;-77
2023/03/15 06:48:12;;;;;;;6.72;4.55;;;;;;;4.44;46.77;100896.72;4979245;28;20046;-78
2023/03/15 06:50:40;;;;;;;6.50;4.90;;;;;;;4.57;46.72;100898.06;4968158;28;20041;-78
2023/03/15 06:53:06;;;;;;;5.60;4.68;;;;;;;4.34;46.37;100888.19;4992071;28;20309;-77
2023/03/15 06:55:32;;;;;;;6.00;4.43;;;;;;;4.06;46.76;100890.78;4991803;28;20042;-76
2023/03/15 06:57:57;;;;;;;5.30;4.70;;;;;;;4.25;47.47;100888.47;4991720;28;20093;-77
2023/03/15 07:00:23;;;;;;;6.07;4.55;;;;;;;4.36;47.42;100893.41;4993154;28;20042;-77
2023/03/15 07:02:49;;;;;;;5.80;4.60;;;;;;;4.48;46.55;100895.72;4975430;28;20509;-78
2023/03/15 07:05:15;;;;;;;7.30;4.80;;;;;;;4.66;46.68;100893.41;4960122;28;20078;-77
2023/03/15 07:07:41;;;;;;;6.35;4.30;;;;;;;4.66;46.43;100885.47;4991702;28;20045;-78
2023/03/15 07:10:07;;;;;;;6.45;4.78;;;;;;;4.56;46.50;100899.00;4992879;28;20046;-77
2023/03/15 07:12:33;;;;;;;11.38;4.88;;;;;;;4.72;46.52;100906.47;4991757;28;20422;-80
2023/03/15 07:14:59;;;;;;;5.50;4.55;;;;;;;4.79;46.22;100897.41;4992214;28;20189;-76
2023/03/15 07:17:25;;;;;;;5.38;4.40;;;;;;;5.65;51.89;100895.44;4993938;28;20078;-77
2023/03/15 07:19:51;;;;;;;7.13;4.40;;;;;;;5.95;45.20;100898.84;4993159;28;20043;-77
2023/03/15 07:22:17;;;;;;;4.72;4.07;;;;;;;5.85;45.35;100894.72;4994123;28;20050;-78
2023/03/15 07:24:42;;;;;;;5.82;4.28;;;;;;;5.47;44.84;100896.94;4996922;28;20096;-77
2023/03/15 07:27:12;;;;;;;6.72;4.13;;;;;;;5.09;45.60;100883.19;4996928;28;20046;-79
2023/03/15 07:29:39;;;;;;;5.38;4.22;;;;;;;5.19;45.98;100886.41;4995690;28;20524;-79
2023/03/15 07:32:06;;;;;;;4.53;4.10;;;;;;;5.26;45.92;100887.03;4979369;28;20050;-78
2023/03/15 07:34:32;;;;;;;5.20;4.28;;;;;;;5.02;46.08;100894.91;4992040;28;20038;-79
2023/03/15 07:36:58;;;;;;;5.43;4.57;;;;;;;4.98;46.45;100887.97;4987870;28;20053;-79
2023/03/15 07:39:25;;;;;;;4.53;3.90;;;;;;;4.95;46.10;100893.34;4978897;28;20096;-78
2023/03/15 07:41:53;;;;;;;4.30;3.60;;;;;;;4.95;46.21;100877.47;4995013;28;20050;-77
2023/03/15 07:44:29;;;;;;;8.57;4.40;;;;;;;4.91;46.56;100872.31;4995642;28;20104;-76
2023/03/15 07:46:54;;;;;;;6.57;4.55;;;;;;;5.31;46.36;100886.00;5011554;28;20050;-78
2023/03/15 07:49:20;;;;;;;4.82;3.95;;;;;;;5.22;45.62;100886.28;5011714;28;20056;-79
2023/03/15 07:51:46;;;;;;;5.35;4.30;;;;;;;5.25;45.75;100877.38;4979011;28;20102;-78
2023/03/15 07:54:12;;;;;;;6.63;4.60;;;;;;;5.72;45.86;100877.53;4995060;28;20073;-78
2023/03/15 07:56:38;;;;;;;6.28;4.03;;;;;;;5.89;45.12;100876.91;5007822;28;20038;-78
2023/03/15 07:59:04;;;;;;;10.18;5.68;;;;;;;5.89;44.96;100879.56;4979566;28;20047;-78
2023/03/15 08:01:29;;;;;;;11.65;4.15;;;;;;;5.81;44.72;100877.19;4962493;28;20101;-77
2023/03/15 08:03:55;;;;;;;6.05;4.03;;;;;;;5.85;45.14;100881.47;4957442;28;20039;-78
2023/03/15 08:06:21;;;;;;;5.25;4.10;;;;;;;6.07;45.19;100871.81;4956239;29;20047;-77
2023/03/15 08:08:47;;;;;;;7.88;4.38;;;;;;;6.25;44.41;100875.59;4957329;28;20469;-77
2023/03/15 08:11:13;;;;;;;4.78;4.30;;;;;;;6.62;44.70;100889.22;4957307;28;20043;-76
2023/03/15 08:13:40;;;;;;;7.18;3.97;;;;;;;6.86;43.98;100872.34;4940156;29;20171;-78
2023/03/15 08:16:06;;;;;;;4.38;3.75;;;;;;;7.02;43.64;100881.41;4939930;29;20535;-76
2023/03/15 08:18:32;;;;;;;3.92;3.50;;;;;;;6.68;43.10;100881.03;4955817;29;20047;-76
2023/03/15 08:20:58;;;;;;;4.93;3.70;;;;;;;6.75;44.14;100867.44;4942020;29;20062;-76
2023/03/15 08:23:25;;;;;;;4.95;3.80;;;;;;;6.80;43.95;100884.06;4955702;29;20063;-76
2023/03/15 08:25:51;;;;;;;4.53;3.83;;;;;;;6.75;43.89;100885.19;4940217;29;20069;-77
2023/03/15 08:28:17;;;;;;;4.20;3.67;;;;;;;6.70;43.61;100882.72;4956705;28;20055;-76
2023/03/15 08:30:43;;;;;;;9.00;3.95;;;;;;;6.84;44.00;100874.16;4956001;28;20050;-77
2023/03/15 08:33:11;;;;;;;5.53;4.25;;;;;;;6.97;44.36;100887.84;4955433;28;20087;-77
2023/03/15 08:35:37;;;;;;;6.97;4.18;;;;;;;6.54;44.41;100892.19;4955779;28;20050;-76
2023/03/15 08:38:03;;;;;;;7.35;4.00;;;;;;;6.13;45.23;100883.13;4938841;29;20413;-76
2023/03/15 08:40:29;;;;;;;6.10;4.25;;;;;;;6.30;44.92;100883.38;4955335;29;20047;-76
2023/03/15 08:42:55;;;;;;;4.45;3.85;;;;;;;6.53;44.54;100891.31;4923556;29;20043;-82
2023/03/15 08:45:25;;;;;;;6.05;4.03;;;;;;;6.27;44.27;100888.81;4956118;28;20086;-77
2023/03/15 08:47:58;;;;;;;4.50;3.97;;;;;;;6.36;44.64;100883.16;4960255;28;20528;-76
2023/03/15 08:50:25;;;;;;;4.30;3.90;;;;;;;6.63;44.51;100875.91;4965284;28;20060;-77
2023/03/15 08:52:51;;;;;;;5.22;3.50;;;;;;;6.81;43.38;100892.94;4993400;28;20078;-79
2023/03/15 08:55:17;;;;;;;5.45;3.55;;;;;;;6.93;43.40;100891.56;4959421;28;20151;-79
2023/03/15 08:57:43;;;;;;;5.70;3.92;;;;;;;6.87;43.54;100897.97;4965134;28;20086;-77
2023/03/15 09:00:19;;;;;;;5.22;3.85;;;;;;;6.74;42.98;100894.94;4977535;28;20042;-77
2023/03/15 09:02:50;;;;;;;5.68;3.70;;;;;;;6.45;43.54;100877.47;4973587;28;20129;-76
2023/03/15 09:05:17;;;;;;;3.70;3.20;;;;;;;6.30;44.24;100863.00;4992819;28;20507;-78
2023/03/15 09:07:44;;;;;;;4.35;3.30;;;;;;;6.60;43.74;100875.16;4993380;28;20121;-77
2023/03/15 09:10:13;;;;;;;5.55;3.50;;;;;;;6.60;43.69;100876.03;4977668;28;20046;-83
2023/03/15 09:12:48;;;;;;;3.75;3.17;;;;;;;6.48;43.48;100871.19;4995156;28;20042;-77
2023/03/15 09:15:15;;;;;;;4.35;3.47;;;;;;;6.45;43.53;100871.31;4977190;28;20046;-80
2023/03/15 09:17:40;;;;;;;3.50;3.20;;;;;;;6.31;43.93;100848.78;4994248;28;20121;-78
2023/03/15 09:20:11;;;;;;;3.60;3.30;;;;;;;6.59;43.72;100844.22;4993411;28;20133;-78
2023/03/15 09:22:37;;;;;;;4.47;3.42;;;;;;;6.82;42.96;100838.84;4993029;28;20145;-79
2023/03/15 09:25:03;;;;;;;3.90;2.90;;;;;;;7.13;42.38;100832.25;4992923;28;20549;-79
2023/03/15 09:27:32;;;;;;;4.22;2.63;;;;;;;7.18;44.04;100838.22;4993832;28;20051;-77
2023/03/15 09:29:59;;;;;;;3.47;2.60;;;;;;;7.25;44.03;100826.41;4992867;28;20046;-82
2023/03/15 09:32:25;;;;;;;3.80;2.90;;;;;;;7.54;45.20;100817.16;5009177;28;20108;-81
2023/03/15 09:34:50;;;;;;;3.80;2.92;;;;;;;7.77;41.53;100816.13;4992371;28;20054;-78
2023/03/15 09:37:17;;;;;;;5.60;3.75;;;;;;;7.74;41.27;100813.63;4992473;28;20049;-78
2023/03/15 09:39:43;;;;;;;4.07;3.30;;;;;;;7.63;41.43;100810.56;4994080;28;20090;-78
2023/03/15 09:42:23;;;;;;;3.92;3.10;;;;;;;7.89;41.39;100807.59;4992747;28;20046;-76
2023/03/15 09:45:15;;;;;;;3.70;3.28;;;;;;;7.97;40.64;100821.44;4976064;28;20113;-78
2023/03/15 09:48:04;;;;;;;10.95;3.33;;;;;;;8.02;40.69;100827.41;4989331;28;20132;-77
2023/03/15 09:50:45;;;;;;;7.28;3.60;;;;;;;7.84;40.57;100820.25;4993866;28;20046;-77
2023/03/15 09:53:37;;;;;;;3.40;3.10;;;;;;;8.04;40.87;100828.19;4992124;28;20050;-77
2023/03/15 09:56:29;;;;;;;3.15;2.85;;;;;;;7.93;40.52;100830.47;4976896;28;20069;-77
2023/03/15 09:59:00;;;;;;;3.50;3.20;;;;;;;8.01;41.19;100831.03;4992874;28;20555;-76
2023/03/15 10:01:46;;;;;;;3.80;3.03;;;;;;;8.26;40.50;100827.22;4993522;28;20280;-77
2023/03/15 10:04:15;;;;;;;3.70;3.40;;;;;;;8.55;40.63;100833.88;4993382;28;20050;-76
2023/03/15 10:06:47;;;;;;;4.13;3.35;;;;;;;8.60;39.77;100830.97;4993754;28;20046;-77
2023/03/15 10:09:19;;;;;;;3.70;3.30;;;;;;;8.45;39.66;100822.78;4991767;28;20038;-77
2023/03/15 10:11:48;;;;;;;18.30;3.50;;;;;;;8.87;40.13;100829.63;4976453;28;20517;-77
2023/03/15 10:14:26;;;;;;;4.18;3.28;;;;;;;9.06;38.35;100831.38;4968312;28;20042;-78
2023/03/15 10:16:51;;;;;;;3.45;3.15;;;;;;;9.33;38.32;100823.81;4956850;28;20589;-79
2023/03/15 10:19:44;;;;;;;3.42;3.13;;;;;;;9.06;37.80;100818.91;4956022;28;20133;-77
2023/03/15 10:22:24;;;;;;;4.40;3.33;;;;;;;8.63;38.40;100826.34;4956452;28;20054;-76
2023/03/15 10:25:00;;;;;;;3.20;2.90;;;;;;;8.86;38.49;100819.91;4972828;28;20042;-78
2023/03/15 10:27:44;;;;;;;4.85;3.28;;;;;;;8.68;38.42;100828.78;4956410;28;20414;-76
2023/03/15 10:30:25;;;;;;;3.97;3.50;;;;;;;8.98;38.49;100831.75;4940511;28;20050;-76
2023/03/15 10:33:31;;;;;;;3.88;3.47;;;;;;;8.99;37.63;100837.03;4971965;28;20391;-79
2023/03/15 10:35:58;;;;;;;6.55;4.03;;;;;;;8.44;37.87;100821.03;4973607;28;20545;-83
2023/03/15 10:38:25;;;;;;;4.78;3.88;;;;;;;8.68;38.37;100823.47;4941700;28;20039;-76
2023/03/15 10:40:56;;;;;;;8.00;3.92;;;;;;;8.98;37.99;100824.63;4972628;28;20450;-75
2023/03/15 10:43:38;;;;;;;5.25;4.13;;;;;;;9.18;37.31;100817.44;4972570;28;20183;-76
2023/03/15 10:46:10;;;;;;;6.28;3.70;;;;;;;8.85;37.91;100826.19;4957066;28;20047;-77
2023/03/15 10:48:39;;;;;;;4.82;4.00;;;;;;;8.89;37.83;100827.75;4955873;28;20047;-76
2023/03/15 10:51:24;;;;;;;5.47;3.67;;;;;;;9.05;37.77;100835.00;4955906;28;20457;-76
2023/03/15 10:54:23;;;;;;;7.10;4.18;;;;;;;9.51;37.21;100832.66;4970080;28;20153;-77
2023/03/15 10:56:55;;;;;;;4.78;3.65;;;;;;;9.64;36.82;100837.28;4945231;28;20112;-77
2023/03/15 10:59:23;;;;;;;4.75;3.72;;;;;;;9.46;36.54;100836.41;4963098;28;20445;-78
2023/03/15 11:02:14;;;;;;;4.25;3.80;;;;;;;9.33;37.39;100822.00;4979327;28;20058;-76
2023/03/15 11:04:42;;;;;;;5.53;4.10;;;;;;;9.83;36.68;100815.81;4965743;28;20039;-78
2023/03/15 11:07:08;;;;;;;6.20;3.60;;;;;;;10.34;36.23;100821.97;4967441;28;20114;-78
2023/03/15 11:09:43;;;;;;;9.30;4.70;;;;;;;10.77;35.98;100829.38;4964014;28;20129;-78
2023/03/15 11:12:16;;;;;;;5.50;3.78;;;;;;;10.75;35.10;100826.78;4946757;28;20422;-75
2023/03/15 11:14:45;;;;;;;6.28;3.50;;;;;;;10.66;35.82;100836.19;4962627;28;20109;-76
2023/03/15 11:17:18;;;;;;;5.72;4.18;;;;;;;10.80;36.69;100827.41;4979033;28;20050;-76
2023/03/15 11:19:58;;;;;;;5.32;3.95;;;;;;;11.06;35.58;100827.72;4995765;28;20043;-76
2023/03/15 11:22:24;;;;;;;7.35;3.85;;;;;;;10.67;35.44;100829.03;4995264;28;20097;-77
2023/03/15 11:24:53;;;;;;;9.93;3.95;;;;;;;10.96;35.92;100827.38;4979084;28;20061;-77
2023/03/15 11:27:22;;;;;;;7.03;3.90;;;;;;;10.81;36.04;100837.13;4978912;28;20038;-75
2023/03/15 11:30:00;;;;;;;4.80;3.97;;;;;;;10.26;35.82;100829.53;4978759;28;20042;-76
2023/03/15 11:32:30;;;;;;;8.32;3.92;;;;;;;9.91;37.00;100831.41;4962932;28;20075;-75
2023/03/15 11:34:56;;;;;;;4.35;3.90;;;;;;;9.89;37.40;100842.19;4979586;28;20059;-76
2023/03/15 11:37:38;;;;;;;5.60;4.22;;;;;;;9.55;37.87;100847.56;4971034;28;20053;-76
2023/03/15 11:40:12;;;;;;;6.38;3.67;;;;;;;9.62;37.46;100843.63;5014973;28;20070;-77
2023/03/15 11:42:48;;;;;;;4.70;3.80;;;;;;;9.23;37.99;100848.28;4971813;28;20090;-77
2023/03/15 11:45:37;;;;;;;4.80;4.03;;;;;;;8.79;38.67;100837.13;4981327;28;20525;-75
2023/03/15 11:48:49;;;;;;;9.02;3.85;;;;;;;8.34;39.92;100840.16;4953548;29;20043;-76